Aviation Digital Data Service (ADDS)

Output produced by METARs form (1737 UTC 15 December 2017)
found at http://www.aviationweather.gov/adds/metars/
 
KGTR 151656Z 36008KT 10SM CLR 04/M03 A3027 RMK AO2 SLP254 T00441033
KGTR 151456Z 32005KT 10SM CLR 02/M02 A3023 RMK AO2 SLP240 T00221022 51026 FZRANO
KGTR 151356Z 32007KT 10SM CLR 01/M02 A3021 RMK AO2 SLP232 T00061022 FZRANO
KGTR 151256Z 32004KT 10SM CLR 00/M02 A3019 RMK AO2 SLP226 T00001022 FZRANO
KGTR 151156Z 29003KT 10SM CLR 00/M03 A3015 RMK AO2 SLP214 7//// T00001028 10044 21011 53008 FZRANO
KGTR 151056Z AUTO 32003KT 10SM CLR M01/M03 A3014 RMK AO2 SLPNO T10061028 FZRANO
KGTR 150956Z AUTO 28004KT 10SM CLR 01/M03 A3014 RMK AO2 SLP209 T00061028 FZRANO
KGTR 150856Z AUTO 32004KT 10SM CLR 00/M03 A3013 RMK AO2 SLP205 T00001028 53011 FZRANO
KGTR 150756Z AUTO 33005KT 10SM CLR 01/M03 A3011 RMK AO2 SLP200 T00111028 FZRANO
KGTR 150656Z AUTO 35005KT 10SM CLR 02/M02 A3010 RMK AO2 SLP196 T00221022 FZRANO
KGTR 150556Z AUTO 34007KT 10SM CLR 04/M02 A3010 RMK AO2 SLP194 T00441017 10111 20039 401610006 51013
KGTR 150456Z AUTO 34008KT 10SM CLR 06/M01 A3009 RMK AO2 SLP192 T00561011
KGTR 150356Z AUTO 34011KT 10SM CLR 07/00 A3008 RMK AO2 SLP188 T00720000
KGTR 150256Z AUTO 34007KT 10SM CLR 08/01 A3006 RMK AO2 SLP182 T00830006 51019
KGTR 150156Z AUTO 35005KT 10SM CLR 08/01 A3005 RMK AO2 SLP177 T00830011
KGTR 150056Z 35004KT 10SM CLR 10/01 A3003 RMK AO2 SLP172 T01000011
KGTR 142356Z 34007KT 10SM CLR 11/01 A3001 RMK AO2 SLP164 6//// T01110011 10161 20111
KGTR 142156Z AUTO 36005KT 10SM CLR 14/02 A2996 RMK AO2 SLP146 T01390022
KGTR 142056Z 02006KT 10SM CLR 16/01 A2995 RMK AO2 SLP142 6//// T01610011 $
KGTR 141956Z 30004KT CLR 16/01 A2996 RMK AO2 SLP146 T01560006 PWINO RVRNO $
KGTR 141856Z VRB03KT 10SM CLR 15/01 RMK AO2 SLPNO T01500006 $
KGTR 141756Z 35004KT 10SM CLR 13/01 A2999 RMK AO2 SLP156 60002 T01330006 10133 20006 50003 $
KGTR 141656Z 31004KT 10SM CLR 12/01 A3000 RMK AO2 SLP160 T01170011 $
KGTR 141556Z 33006KT 10SM CLR 09/01 A3000 RMK AO2 SLP159 P0002 T00940006 $
KGTR 141456Z 28003KT 10SM CLR 07/01 A2998 RMK AO2 SLP153 T00670006 52017 $
KGTR 141356Z 21003KT 10SM CLR 02/M01 A2997 RMK AO2 SLP151 T00221006 FZRANO $
KGTR 141256Z 00000KT 10SM CLR 03/M01 A2994 RMK AO2 SLP140 T00331011 $
KGTR 141156Z 00000KT 10SM CLR 04/M02 A2993 RMK AO2 SLP137 7//// T00391017 10083 20039 $
KGTR 141056Z AUTO 27004KT 10SM CLR 05/M02 RMK AO2 SLPNO T00501017 $
KGTR 140956Z AUTO 25005KT 10SM CLR 06/M02 RMK AO2 SLPNO T00611017 $
KGTR 140856Z AUTO 26006KT 10SM CLR 07/M02 RMK AO2 SLPNO T00671017 $
KGTR 140756Z AUTO 25004KT 10SM CLR 07/M02 RMK AO2 SLPNO T00671022 $
KGTR 140656Z AUTO 24004KT 10SM CLR 07/M02 RMK AO2 SLPNO T00721022 $
KGTR 140556Z AUTO 24007KT 10SM CLR 08/M02 RMK AO2 SLPNO T00831022 10100 20044 $
KGTR 140456Z AUTO 23007KT 10SM CLR 08/M02 RMK AO2 SLPNO T00831022 $
KGTR 140356Z AUTO 24003KT 10SM CLR 07/M03 RMK AO2 SLPNO T00721033 $
KGTR 140256Z AUTO 20006KT 10SM CLR 07/M03 RMK AO2 SLPNO T00721033 $
KGTR 140156Z 19005KT 10SM CLR 07/M04 A2988 RMK AO2 SLP120 T00671039 $
KGTR 140056Z 20004KT 10SM CLR 09/M04 A2988 RMK AO2 SLPNO T00891039 $
KGTR 132356Z 19009KT 10SM CLR 10/M04 A2988 RMK AO2 SLPNO T01001044 10150 20100 56017 $
KGTR 132256Z 20007KT 10SM CLR 12/M05 A2989 RMK AO2 SLPNO T01171050 $
KGTR 132156Z 21009G15KT 10SM CLR 14/M05 A2990 RMK AO2 SLPNO T01391050 $
KGTR 132056Z 20014G19KT 10SM CLR 14/M05 A2993 RMK AO2 SLPNO T01441050 56044 $
KGTR 131956Z 21012KT 10SM CLR 14/M06 A2995 RMK AO2 SLPNO T01391056 $
KGTR 131856Z 20012KT 10SM CLR 13/M06 A2997 RMK AO2 SLPNO T01281056 $
KGTR 131756Z 21011G15KT 10SM CLR 12/M04 A3006 RMK AO2 SLPNO 6//// T01171044 $
KGTR 131656Z AUTO 19009KT 10SM CLR 09/M05 RMK AO2 SLPNO T00941050 $
KGTR 131556Z 18008KT 10SM CLR 08/M05 A3010 RMK AO2 SLPNO T00801050 PWINO $
KGTR 131456Z 18011KT 10SM CLR 04/M05 A3011 RMK AO2 SLPNO 6//// T00401050 PWINO $
KGTR 131356Z 00000KT 10SM CLR 04/01 A3011 RMK AO2 SLP199 T00400010 $
KGTR 131156Z COR 18003KT 10SM SKC M02/M05 A3012
KGTR 130156Z AUTO 29005KT 10SM CLR 05/M03 A3016 RMK AO2 SLP216 T00501028
KGTR 130056Z 30006KT 10SM CLR 06/M03 A3014 RMK AO2 SLP208 T00611028
KGTR 122356Z 31005KT 10SM CLR 07/M03 A3012 RMK AO2 SLP204 T00721028 10133 20072 53010
KGTR 122256Z 32007KT 10SM CLR 09/M03 A3010 RMK AO2 SLP195 T00941028
KGTR 122156Z 33009KT 10SM CLR 12/M02 A3010 RMK AO2 SLP197 T01171017
KGTR 121956Z 33011G18KT 10SM CLR 13/M01 A3010 RMK AO2 SLP193 T01331011
KGTR 121856Z 31012KT 10SM CLR 13/01 A3011 RMK AO2 SLP196 T01280006
KGTR 121756Z 30010G17KT 10SM SCT045 12/01 A3014 RMK AO2 SLP208 T01170006 10122 20061 50001